Grantsburg, Wisconsin
Current Conditions -  °F | °C
As of 9:35 PM on Friday 19 Dec 2014 (Local Time) from KROS Reporting Station
Overcast Overcast  
Wind Chill: 21°   Ceiling: 1300
Heat Index: 27°   Visibility: 10mi
Dew Point: 24°   Wind: 6mph
Humidity: 86%   Direction: 150°SSE
Pressure: 30.17"   Gusts: NA
Location:  45.78°N, 92.68°W
Report Text: KROS 200335Z AUTO 15005KT 10SM BKN013 OVC022 M03/M05 A3017 RMK AO2 T10261047
Loading
Personal Weather Stations






























Interactive Weather Map New forecast layout! Learn more

10-Day Weather Forecast

Advertisements
Track Severe Weather on mobile